Buffalo River (Arkansas), Ponca (07055660)

StateArkansasCurrentGood (171 cfs)
RiverBuffalo RiverFlood - The river is flooding. Obstacles can be treacherous or deadly. The river should be avoided at this stage for casual trips and definitely for the inexperienced. Trips should be attempted only with protective gear and equipment.Flood(none)
Updated2019-10-14 2:45 (15 minutes ago)High - The river is high and potentially dangerous, especially for the young and / or inexperienced. Normal stream obstacles are sometimes difficult to navigate. Extended distances can be attempted, but canoe travel may not be advisable.High(none)
Discharge171 cfs (median: 11 cfs)Good - Conditions are ideal for a canoe or kayak. Boats typically will drag on fewer than one-quarter of riffles, if at all, and portages are unnecessary or rare. Normal float lengths can be attempted without a problem.Good120
Height2.99 feetLow - River is low but can still be floated. Some riffles are okay but most come with significant dragging and might need a portage. Float lengths should be reduced to accommodate low flow, dragging, and portages.Low70
TrendRising (falling over 24 hours)Poor - River is too low to float comfortably. Most or all riffles will drag or must be portaged and some obstacles (such as slick shelf rock) cause undue problems. Avoid the river at this stage for casual paddling trips.Poor(none)
USGSExternal icon USGS Site for Ponca (07055660)LocationExternal icon Google Maps

Trending Data

Plot Image
ObservationHeightDischargeMaximum
Discharge
Minimum
Discharge
Mean
Discharge
P05P10P20P25P50
(Median)
P75P80P90P95
2019-10-14 02:45 2.99 171 844 (2010) 1 (2018) 148 1 2 2 11 160 450 815
2019-10-14 02:30 3.01 844 (2010) 1 (2018) 148 1 2 2 11 160 450 815
2019-10-14 02:15 175 844 (2010) 1 (2018) 148 1 2 2 11 160 450 815
2019-10-14 02:00 3.02 178 844 (2010) 1 (2018) 148 1 2 2 11 160 450 815
2019-10-14 01:45 3.02 178 844 (2010) 1 (2018) 148 1 2 2 11 160 450 815
2019-10-14 01:30 3.03 180 844 (2010) 1 (2018) 148 1 2 2 11 160 450 815
2019-10-14 01:15 3.04 182 844 (2010) 1 (2018) 148 1 2 2 11 160 450 815
2019-10-14 01:00 3.05 185 844 (2010) 1 (2018) 148 1 2 2 11 160 450 815
2019-10-14 00:45 3.03 180 844 (2010) 1 (2018) 148 1 2 2 11 160 450 815
2019-10-14 00:30 3.04 182 844 (2010) 1 (2018) 148 1 2 2 11 160 450 815
2019-10-14 00:15 187 844 (2010) 1 (2018) 148 1 2 2 11 160 450 815
2019-10-14 00:00 3.06 187 844 (2010) 1 (2018) 148 1 2 2 11 160 450 815
2019-10-13 23:45 3.05 185 985 (2015) 2 (2016) 170 2 2 3 10 183 520 951
2019-10-13 23:30 3.06 187 985 (2015) 2 (2016) 170 2 2 3 10 183 520 951
2019-10-13 23:15 3.07 190 985 (2015) 2 (2016) 170 2 2 3 10 183 520 951
2019-10-13 23:00 3.07 190 985 (2015) 2 (2016) 170 2 2 3 10 183 520 951
2019-10-13 22:45 3.08 192 985 (2015) 2 (2016) 170 2 2 3 10 183 520 951
2019-10-13 22:30 3.08 192 985 (2015) 2 (2016) 170 2 2 3 10 183 520 951
2019-10-13 22:15 3.08 192 985 (2015) 2 (2016) 170 2 2 3 10 183 520 951
2019-10-13 22:00 3.09 195 985 (2015) 2 (2016) 170 2 2 3 10 183 520 951
2019-10-13 21:45 3.09 195 985 (2015) 2 (2016) 170 2 2 3 10 183 520 951
2019-10-13 21:30 3.10 197 985 (2015) 2 (2016) 170 2 2 3 10 183 520 951
2019-10-13 21:15 200 985 (2015) 2 (2016) 170 2 2 3 10 183 520 951
2019-10-13 21:00 3.09 195 985 (2015) 2 (2016) 170 2 2 3 10 183 520 951
2019-10-13 20:45 3.11 200 985 (2015) 2 (2016) 170 2 2 3 10 183 520 951
2019-10-13 20:30 3.11 200 985 (2015) 2 (2016) 170 2 2 3 10 183 520 951
2019-10-13 20:15 3.12 202 985 (2015) 2 (2016) 170 2 2 3 10 183 520 951
2019-10-13 20:00 3.12 202 985 (2015) 2 (2016) 170 2 2 3 10 183 520 951
2019-10-13 19:45 3.13 205 985 (2015) 2 (2016) 170 2 2 3 10 183 520 951
2019-10-13 19:30 3.13 205 985 (2015) 2 (2016) 170 2 2 3 10 183 520 951
2019-10-13 19:15 3.14 208 985 (2015) 2 (2016) 170 2 2 3 10 183 520 951
2019-10-13 19:00 205 985 (2015) 2 (2016) 170 2 2 3 10 183 520 951
2019-10-13 18:45 3.14 208 985 (2015) 2 (2016) 170 2 2 3 10 183 520 951
2019-10-13 18:30 3.15 985 (2015) 2 (2016) 170 2 2 3 10 183 520 951
2019-10-13 18:15 210 985 (2015) 2 (2016) 170 2 2 3 10 183 520 951
2019-10-13 18:00 3.16 213 985 (2015) 2 (2016) 170 2 2 3 10 183 520 951
2019-10-13 17:45 3.17 216 985 (2015) 2 (2016) 170 2 2 3 10 183 520 951
2019-10-13 17:15 3.17 216 985 (2015) 2 (2016) 170 2 2 3 10 183 520 951
2019-10-13 17:00 3.16 213 985 (2015) 2 (2016) 170 2 2 3 10 183 520 951
2019-10-13 16:45 3.17 216 985 (2015) 2 (2016) 170 2 2 3 10 183 520 951
2019-10-13 16:15 3.19 221 985 (2015) 2 (2016) 170 2 2 3 10 183 520 951
2019-10-13 16:00 3.19 221 985 (2015) 2 (2016) 170 2 2 3 10 183 520 951
2019-10-13 15:45 3.19 221 985 (2015) 2 (2016) 170 2 2 3 10 183 520 951
2019-10-13 15:30 3.20 224 985 (2015) 2 (2016) 170 2 2 3 10 183 520 951
2019-10-13 15:00 3.21 227 985 (2015) 2 (2016) 170 2 2 3 10 183 520 951
2019-10-13 14:45 3.20 224 985 (2015) 2 (2016) 170 2 2 3 10 183 520 951
2019-10-13 14:30 3.20 985 (2015) 2 (2016) 170 2 2 3 10 183 520 951
2019-10-13 14:15 227 985 (2015) 2 (2016) 170 2 2 3 10 183 520 951
2019-10-13 14:00 3.22 229 985 (2015) 2 (2016) 170 2 2 3 10 183 520 951
2019-10-13 13:45 3.23 232 985 (2015) 2 (2016) 170 2 2 3 10 183 520 951
2019-10-13 13:30 3.24 235 985 (2015) 2 (2016) 170 2 2 3 10 183 520 951
2019-10-13 13:15 3.24 235 985 (2015) 2 (2016) 170 2 2 3 10 183 520 951
2019-10-13 12:45 3.24 235 985 (2015) 2 (2016) 170 2 2 3 10 183 520 951
2019-10-13 12:30 3.25 238 985 (2015) 2 (2016) 170 2 2 3 10 183 520 951
2019-10-13 12:15 3.23 985 (2015) 2 (2016) 170 2 2 3 10 183 520 951
2019-10-13 12:00 238 985 (2015) 2 (2016) 170 2 2 3 10 183 520 951
2019-10-13 11:45 3.26 241 985 (2015) 2 (2016) 170 2 2 3 10 183 520 951
2019-10-13 11:15 3.26 241 985 (2015) 2 (2016) 170 2 2 3 10 183 520 951
2019-10-13 11:00 241 985 (2015) 2 (2016) 170 2 2 3 10 183 520 951
2019-10-13 10:45 3.27 244 985 (2015) 2 (2016) 170 2 2 3 10 183 520 951
2019-10-13 10:15 3.28 247 985 (2015) 2 (2016) 170 2 2 3 10 183 520 951
2019-10-13 10:00 3.29 250 985 (2015) 2 (2016) 170 2 2 3 10 183 520 951
2019-10-13 09:45 3.29 250 985 (2015) 2 (2016) 170 2 2 3 10 183 520 951
2019-10-13 09:30 3.29 985 (2015) 2 (2016) 170 2 2 3 10 183 520 951
2019-10-13 09:15 250 985 (2015) 2 (2016) 170 2 2 3 10 183 520 951
2019-10-13 09:00 3.30 253 985 (2015) 2 (2016) 170 2 2 3 10 183 520 951
2019-10-13 08:45 3.30 253 985 (2015) 2 (2016) 170 2 2 3 10 183 520 951
2019-10-13 08:30 3.32 985 (2015) 2 (2016) 170 2 2 3 10 183 520 951
2019-10-13 08:15 256 985 (2015) 2 (2016) 170 2 2 3 10 183 520 951
2019-10-13 08:00 3.32 259 985 (2015) 2 (2016) 170 2 2 3 10 183 520 951
2019-10-13 07:45 3.34 265 985 (2015) 2 (2016) 170 2 2 3 10 183 520 951
2019-10-13 07:15 3.33 262 985 (2015) 2 (2016) 170 2 2 3 10 183 520 951
2019-10-13 07:00 262 985 (2015) 2 (2016) 170 2 2 3 10 183 520 951
2019-10-13 06:45 3.34 265 985 (2015) 2 (2016) 170 2 2 3 10 183 520 951
2019-10-13 06:30 3.34 265 985 (2015) 2 (2016) 170 2 2 3 10 183 520 951
2019-10-13 06:00 3.36 271 985 (2015) 2 (2016) 170 2 2 3 10 183 520 951
2019-10-13 05:45 3.37 274 985 (2015) 2 (2016) 170 2 2 3 10 183 520 951
2019-10-13 05:30 3.37 274 985 (2015) 2 (2016) 170 2 2 3 10 183 520 951
2019-10-13 05:15 3.38 277 985 (2015) 2 (2016) 170 2 2 3 10 183 520 951
2019-10-13 05:00 3.38 277 985 (2015) 2 (2016) 170 2 2 3 10 183 520 951
2019-10-13 04:45 3.39 281 985 (2015) 2 (2016) 170 2 2 3 10 183 520 951
2019-10-13 04:30 3.39 281 985 (2015) 2 (2016) 170 2 2 3 10 183 520 951
2019-10-13 04:00 3.40 284 985 (2015) 2 (2016) 170 2 2 3 10 183 520 951
2019-10-13 03:45 3.40 284 985 (2015) 2 (2016) 170 2 2 3 10 183 520 951
2019-10-13 03:15 3.41 287 985 (2015) 2 (2016) 170 2 2 3 10 183 520 951
2019-10-13 03:00 3.42 290 985 (2015) 2 (2016) 170 2 2 3 10 183 520 951
2019-10-13 02:45 3.43 294 985 (2015) 2 (2016) 170 2 2 3 10 183 520 951
2019-10-13 02:30 3.44 297 985 (2015) 2 (2016) 170 2 2 3 10 183 520 951
2019-10-13 02:00 3.45 300 985 (2015) 2 (2016) 170 2 2 3 10 183 520 951
2019-10-13 01:45 3.44 297 985 (2015) 2 (2016) 170 2 2 3 10 183 520 951
2019-10-13 01:30 3.45 300 985 (2015) 2 (2016) 170 2 2 3 10 183 520 951
2019-10-13 01:15 3.47 307 985 (2015) 2 (2016) 170 2 2 3 10 183 520 951
2019-10-13 01:00 3.47 307 985 (2015) 2 (2016) 170 2 2 3 10 183 520 951
2019-10-13 00:30 3.48 311 985 (2015) 2 (2016) 170 2 2 3 10 183 520 951
2019-10-13 00:15 3.49 314 985 (2015) 2 (2016) 170 2 2 3 10 183 520 951
2019-10-13 00:00 3.49 314 985 (2015) 2 (2016) 170 2 2 3 10 183 520 951
2019-10-12 23:45 3.49 314 381 (2010) 2 (2016) 84 2 2 2 8 168 306 381
2019-10-12 23:30 3.49 314 381 (2010) 2 (2016) 84 2 2 2 8 168 306 381
2019-10-12 23:15 3.51 321 381 (2010) 2 (2016) 84 2 2 2 8 168 306 381
2019-10-12 23:00 3.53 328 381 (2010) 2 (2016) 84 2 2 2 8 168 306 381
2019-10-12 22:45 3.50 317 381 (2010) 2 (2016) 84 2 2 2 8 168 306 381
2019-10-12 22:30 3.52 324 381 (2010) 2 (2016) 84 2 2 2 8 168 306 381
2019-10-12 22:15 3.54 332 381 (2010) 2 (2016) 84 2 2 2 8 168 306 381
2019-10-12 22:00 3.53 328 381 (2010) 2 (2016) 84 2 2 2 8 168 306 381
2019-10-12 21:45 3.55 335 381 (2010) 2 (2016) 84 2 2 2 8 168 306 381
2019-10-12 21:30 3.56 339 381 (2010) 2 (2016) 84 2 2 2 8 168 306 381
2019-10-12 21:15 3.56 339 381 (2010) 2 (2016) 84 2 2 2 8 168 306 381
2019-10-12 21:00 3.57 343 381 (2010) 2 (2016) 84 2 2 2 8 168 306 381
2019-10-12 20:45 3.58 346 381 (2010) 2 (2016) 84 2 2 2 8 168 306 381
2019-10-12 20:15 3.60 354 381 (2010) 2 (2016) 84 2 2 2 8 168 306 381
2019-10-12 20:00 3.59 350 381 (2010) 2 (2016) 84 2 2 2 8 168 306 381
2019-10-12 19:45 3.61 357 381 (2010) 2 (2016) 84 2 2 2 8 168 306 381
2019-10-12 19:30 3.61 357 381 (2010) 2 (2016) 84 2 2 2 8 168 306 381
2019-10-12 19:15 3.62 361 381 (2010) 2 (2016) 84 2 2 2 8 168 306 381
2019-10-12 19:00 3.62 361 381 (2010) 2 (2016) 84 2 2 2 8 168 306 381
2019-10-12 18:45 3.64 369 381 (2010) 2 (2016) 84 2 2 2 8 168 306 381
2019-10-12 18:30 3.65 381 (2010) 2 (2016) 84 2 2 2 8 168 306 381
2019-10-12 18:15 373 381 (2010) 2 (2016) 84 2 2 2 8 168 306 381
2019-10-12 18:00 3.66 377 381 (2010) 2 (2016) 84 2 2 2 8 168 306 381
2019-10-12 17:45 3.67 381 381 (2010) 2 (2016) 84 2 2 2 8 168 306 381
2019-10-12 17:30 3.67 381 (2010) 2 (2016) 84 2 2 2 8 168 306 381
2019-10-12 17:15 388 381 (2010) 2 (2016) 84 2 2 2 8 168 306 381
2019-10-12 17:00 3.68 384 381 (2010) 2 (2016) 84 2 2 2 8 168 306 381
2019-10-12 16:45 3.70 392 381 (2010) 2 (2016) 84 2 2 2 8 168 306 381
2019-10-12 16:15 3.72 400 381 (2010) 2 (2016) 84 2 2 2 8 168 306 381
2019-10-12 16:00 3.74 408 381 (2010) 2 (2016) 84 2 2 2 8 168 306 381
2019-10-12 15:45 3.73 404 381 (2010) 2 (2016) 84 2 2 2 8 168 306 381
2019-10-12 15:30 3.74 381 (2010) 2 (2016) 84 2 2 2 8 168 306 381
2019-10-12 15:15 3.76 416 381 (2010) 2 (2016) 84 2 2 2 8 168 306 381
2019-10-12 15:00 416 381 (2010) 2 (2016) 84 2 2 2 8 168 306 381
2019-10-12 14:45 3.77 420 381 (2010) 2 (2016) 84 2 2 2 8 168 306 381
2019-10-12 14:30 3.77 381 (2010) 2 (2016) 84 2 2 2 8 168 306 381
2019-10-12 14:15 3.78 424 381 (2010) 2 (2016) 84 2 2 2 8 168 306 381
2019-10-12 14:00 432 381 (2010) 2 (2016) 84 2 2 2 8 168 306 381
2019-10-12 13:45 3.84 445 381 (2010) 2 (2016) 84 2 2 2 8 168 306 381
2019-10-12 13:30 3.82 438 381 (2010) 2 (2016) 84 2 2 2 8 168 306 381
2019-10-12 13:00 3.82 438 381 (2010) 2 (2016) 84 2 2 2 8 168 306 381
2019-10-12 12:45 3.84 445 381 (2010) 2 (2016) 84 2 2 2 8 168 306 381
2019-10-12 12:15 3.86 452 381 (2010) 2 (2016) 84 2 2 2 8 168 306 381
2019-10-12 12:00 452 381 (2010) 2 (2016) 84 2 2 2 8 168 306 381
2019-10-12 11:45 3.88 459 381 (2010) 2 (2016) 84 2 2 2 8 168 306 381
2019-10-12 11:30 3.89 381 (2010) 2 (2016) 84 2 2 2 8 168 306 381
2019-10-12 11:15 3.89 462 381 (2010) 2 (2016) 84 2 2 2 8 168 306 381
2019-10-12 11:00 469 381 (2010) 2 (2016) 84 2 2 2 8 168 306 381
2019-10-12 10:45 3.91 469 381 (2010) 2 (2016) 84 2 2 2 8 168 306 381
2019-10-12 10:15 3.92 473 381 (2010) 2 (2016) 84 2 2 2 8 168 306 381
2019-10-12 10:00 3.96 487 381 (2010) 2 (2016) 84 2 2 2 8 168 306 381
2019-10-12 09:45 3.94 480 381 (2010) 2 (2016) 84 2 2 2 8 168 306 381
2019-10-12 09:30 3.96 381 (2010) 2 (2016) 84 2 2 2 8 168 306 381
2019-10-12 09:15 3.98 494 381 (2010) 2 (2016) 84 2 2 2 8 168 306 381
2019-10-12 09:00 498 381 (2010) 2 (2016) 84 2 2 2 8 168 306 381
2019-10-12 08:45 3.99 498 381 (2010) 2 (2016) 84 2 2 2 8 168 306 381
2019-10-12 08:15 4.01 505 381 (2010) 2 (2016) 84 2 2 2 8 168 306 381
2019-10-12 08:00 4.02 509 381 (2010) 2 (2016) 84 2 2 2 8 168 306 381
2019-10-12 07:45 4.03 512 381 (2010) 2 (2016) 84 2 2 2 8 168 306 381
2019-10-12 07:30 4.06 381 (2010) 2 (2016) 84 2 2 2 8 168 306 381
2019-10-12 07:15 4.05 520 381 (2010) 2 (2016) 84 2 2 2 8 168 306 381
2019-10-12 07:00 520 381 (2010) 2 (2016) 84 2 2 2 8 168 306 381
2019-10-12 06:45 4.08 531 381 (2010) 2 (2016) 84 2 2 2 8 168 306 381
2019-10-12 06:15 4.11 543 381 (2010) 2 (2016) 84 2 2 2 8 168 306 381
2019-10-12 06:00 554 381 (2010) 2 (2016) 84 2 2 2 8 168 306 381
2019-10-12 05:45 4.12 547 381 (2010) 2 (2016) 84 2 2 2 8 168 306 381
2019-10-12 05:15 4.17 566 381 (2010) 2 (2016) 84 2 2 2 8 168 306 381
2019-10-12 04:45 4.19 574 381 (2010) 2 (2016) 84 2 2 2 8 168 306 381
2019-10-12 04:30 4.20 578 381 (2010) 2 (2016) 84 2 2 2 8 168 306 381
2019-10-12 04:15 4.23 590 381 (2010) 2 (2016) 84 2 2 2 8 168 306 381
2019-10-12 04:00 4.22 586 381 (2010) 2 (2016) 84 2 2 2 8 168 306 381
2019-10-12 03:45 4.26 602 381 (2010) 2 (2016) 84 2 2 2 8 168 306 381
2019-10-12 03:15 4.29 615 381 (2010) 2 (2016) 84 2 2 2 8 168 306 381
2019-10-12 03:00 4.27 607 381 (2010) 2 (2016) 84 2 2 2 8 168 306 381
2019-10-12 02:45 4.31 623 381 (2010) 2 (2016) 84 2 2 2 8 168 306 381
2019-10-12 02:30 4.34 636 381 (2010) 2 (2016) 84 2 2 2 8 168 306 381
2019-10-12 02:15 4.31 623 381 (2010) 2 (2016) 84 2 2 2 8 168 306 381
2019-10-12 02:00 4.34 636 381 (2010) 2 (2016) 84 2 2 2 8 168 306 381
2019-10-12 01:45 4.39 657 381 (2010) 2 (2016) 84 2 2 2 8 168 306 381
2019-10-12 01:30 4.38 653 381 (2010) 2 (2016) 84 2 2 2 8 168 306 381
2019-10-12 01:15 4.39 657 381 (2010) 2 (2016) 84 2 2 2 8 168 306 381
2019-10-12 00:45 4.44 679 381 (2010) 2 (2016) 84 2 2 2 8 168 306 381
2019-10-12 00:30 4.47 693 381 (2010) 2 (2016) 84 2 2 2 8 168 306 381
2019-10-12 00:15 4.51 711 381 (2010) 2 (2016) 84 2 2 2 8 168 306 381
2019-10-12 00:00 4.48 697 381 (2010) 2 (2016) 84 2 2 2 8 168 306 381
2019-10-11 23:45 4.54 725 507 (2010) 1 (2013) 77 1 2 2 3 70 162 476
2019-10-11 23:30 4.53 720 507 (2010) 1 (2013) 77 1 2 2 3 70 162 476
2019-10-11 23:00 4.58 744 507 (2010) 1 (2013) 77 1 2 2 3 70 162 476
2019-10-11 22:45 4.63 767 507 (2010) 1 (2013) 77 1 2 2 3 70 162 476
2019-10-11 22:30 4.63 767 507 (2010) 1 (2013) 77 1 2 2 3 70 162 476
2019-10-11 22:15 4.66 782 507 (2010) 1 (2013) 77 1 2 2 3 70 162 476
2019-10-11 21:45 4.71 807 507 (2010) 1 (2013) 77 1 2 2 3 70 162 476
2019-10-11 21:30 4.73 817 507 (2010) 1 (2013) 77 1 2 2 3 70 162 476
2019-10-11 21:15 847 507 (2010) 1 (2013) 77 1 2 2 3 70 162 476
2019-10-11 21:00 4.79 847 507 (2010) 1 (2013) 77 1 2 2 3 70 162 476
2019-10-11 20:45 4.82 863 507 (2010) 1 (2013) 77 1 2 2 3 70 162 476
2019-10-11 20:30 4.83 868 507 (2010) 1 (2013) 77 1 2 2 3 70 162 476
2019-10-11 20:15 4.85 878 507 (2010) 1 (2013) 77 1 2 2 3 70 162 476
2019-10-11 20:00 4.89 899 507 (2010) 1 (2013) 77 1 2 2 3 70 162 476
2019-10-11 19:45 4.93 921 507 (2010) 1 (2013) 77 1 2 2 3 70 162 476
2019-10-11 19:30 4.96 937 507 (2010) 1 (2013) 77 1 2 2 3 70 162 476
2019-10-11 19:15 5.01 965 507 (2010) 1 (2013) 77 1 2 2 3 70 162 476
2019-10-11 19:00 5.02 971 507 (2010) 1 (2013) 77 1 2 2 3 70 162 476
2019-10-11 18:45 5.06 993 507 (2010) 1 (2013) 77 1 2 2 3 70 162 476
2019-10-11 18:30 5.06 507 (2010) 1 (2013) 77 1 2 2 3 70 162 476
2019-10-11 18:15 5.12 1030 507 (2010) 1 (2013) 77 1 2 2 3 70 162 476
2019-10-11 18:00 1050 507 (2010) 1 (2013) 77 1 2 2 3 70 162 476
2019-10-11 17:45 5.19 1070 507 (2010) 1 (2013) 77 1 2 2 3 70 162 476
2019-10-11 17:15 5.27 1120 507 (2010) 1 (2013) 77 1 2 2 3 70 162 476
2019-10-11 17:00 5.30 1140 507 (2010) 1 (2013) 77 1 2 2 3 70 162 476
2019-10-11 16:45 5.36 1170 507 (2010) 1 (2013) 77 1 2 2 3 70 162 476
2019-10-11 16:15 5.42 1210 507 (2010) 1 (2013) 77 1 2 2 3 70 162 476
2019-10-11 16:00 5.45 1230 507 (2010) 1 (2013) 77 1 2 2 3 70 162 476
2019-10-11 15:45 5.52 1280 507 (2010) 1 (2013) 77 1 2 2 3 70 162 476
2019-10-11 15:30 5.54 1290 507 (2010) 1 (2013) 77 1 2 2 3 70 162 476
2019-10-11 15:15 5.54 1290 507 (2010) 1 (2013) 77 1 2 2 3 70 162 476
2019-10-11 14:45 5.71 1410 507 (2010) 1 (2013) 77 1 2 2 3 70 162 476
2019-10-11 14:30 5.66 1370 507 (2010) 1 (2013) 77 1 2 2 3 70 162 476
2019-10-11 14:15 5.79 507 (2010) 1 (2013) 77 1 2 2 3 70 162 476
2019-10-11 14:00 5.82 1490 507 (2010) 1 (2013) 77 1 2 2 3 70 162 476
2019-10-11 13:45 5.89 1540 507 (2010) 1 (2013) 77 1 2 2 3 70 162 476
2019-10-11 13:15 6.03 1660 507 (2010) 1 (2013) 77 1 2 2 3 70 162 476
2019-10-11 13:00 6.08 1710 507 (2010) 1 (2013) 77 1 2 2 3 70 162 476
2019-10-11 12:45 6.16 1790 507 (2010) 1 (2013) 77 1 2 2 3 70 162 476
2019-10-11 12:30 6.24 1870 507 (2010) 1 (2013) 77 1 2 2 3 70 162 476
2019-10-11 12:15 6.34 1960 507 (2010) 1 (2013) 77 1 2 2 3 70 162 476
2019-10-11 12:00 6.43 507 (2010) 1 (2013) 77 1 2 2 3 70 162 476
2019-10-11 11:45 6.53 2140 507 (2010) 1 (2013) 77 1 2 2 3 70 162 476
2019-10-11 11:30 6.61 2220 507 (2010) 1 (2013) 77 1 2 2 3 70 162 476
2019-10-11 11:00 6.83 2440 507 (2010) 1 (2013) 77 1 2 2 3 70 162 476
2019-10-11 10:45 6.92 2530 507 (2010) 1 (2013) 77 1 2 2 3 70 162 476
2019-10-11 10:30 7.03 2640 507 (2010) 1 (2013) 77 1 2 2 3 70 162 476
2019-10-11 10:15 7.04 2650 507 (2010) 1 (2013) 77 1 2 2 3 70 162 476
2019-10-11 09:45 7.11 2720 507 (2010) 1 (2013) 77 1 2 2 3 70 162 476
2019-10-11 09:30 7.09 2700 507 (2010) 1 (2013) 77 1 2 2 3 70 162 476
2019-10-11 09:15 7.01 2620 507 (2010) 1 (2013) 77 1 2 2 3 70 162 476
2019-10-11 08:45 6.95 2560 507 (2010) 1 (2013) 77 1 2 2 3 70 162 476
2019-10-11 08:30 6.84 2450 507 (2010) 1 (2013) 77 1 2 2 3 70 162 476
2019-10-11 08:00 7.05 2660 507 (2010) 1 (2013) 77 1 2 2 3 70 162 476
2019-10-11 07:45 7.16 2770 507 (2010) 1 (2013) 77 1 2 2 3 70 162 476
2019-10-11 07:30 7.29 507 (2010) 1 (2013) 77 1 2 2 3 70 162 476
2019-10-11 07:15 7.40 3020 507 (2010) 1 (2013) 77 1 2 2 3 70 162 476
2019-10-11 07:00 7.55 507 (2010) 1 (2013) 77 1 2 2 3 70 162 476
2019-10-11 06:45 7.60 3220 507 (2010) 1 (2013) 77 1 2 2 3 70 162 476
2019-10-11 06:15 7.83 3470 507 (2010) 1 (2013) 77 1 2 2 3 70 162 476
2019-10-11 06:00 3450 507 (2010) 1 (2013) 77 1 2 2 3 70 162 476
2019-10-11 05:45 7.74 3370 507 (2010) 1 (2013) 77 1 2 2 3 70 162 476
2019-10-11 05:30 7.59 3210 507 (2010) 1 (2013) 77 1 2 2 3 70 162 476
2019-10-11 05:15 7.46 3080 507 (2010) 1 (2013) 77 1 2 2 3 70 162 476
2019-10-11 04:45 7.19 2800 507 (2010) 1 (2013) 77 1 2 2 3 70 162 476
2019-10-11 04:30 6.78 2390 507 (2010) 1 (2013) 77 1 2 2 3 70 162 476
2019-10-11 04:00 5.70 1400 507 (2010) 1 (2013) 77 1 2 2 3 70 162 476
2019-10-11 03:45 5.18 1060 507 (2010) 1 (2013) 77 1 2 2 3 70 162 476
2019-10-11 03:30 4.50 707 507 (2010) 1 (2013) 77 1 2 2 3 70 162 476
2019-10-11 03:15 4.10 539 507 (2010) 1 (2013) 77 1 2 2 3 70 162 476
2019-10-11 03:00 3.93 476 507 (2010) 1 (2013) 77 1 2 2 3 70 162 476
2019-10-11 02:45 3.88 459 507 (2010) 1 (2013) 77 1 2 2 3 70 162 476
2019-10-11 02:30 3.85 507 (2010) 1 (2013) 77 1 2 2 3 70 162 476
2019-10-11 02:15 3.86 452 507 (2010) 1 (2013) 77 1 2 2 3 70 162 476
2019-10-11 01:45 3.92 473 507 (2010) 1 (2013) 77 1 2 2 3 70 162 476
2019-10-11 01:30 3.94 480 507 (2010) 1 (2013) 77 1 2 2 3 70 162 476
2019-10-11 01:15 4.01 505 507 (2010) 1 (2013) 77 1 2 2 3 70 162 476
2019-10-11 01:00 4.08 531 507 (2010) 1 (2013) 77 1 2 2 3 70 162 476
2019-10-11 00:30 4.23 590 507 (2010) 1 (2013) 77 1 2 2 3 70 162 476
2019-10-11 00:00 4.44 679 507 (2010) 1 (2013) 77 1 2 2 3 70 162 476
2019-10-10 23:45 4.55 730 879 (2010) 1 (2013) 104 1 2 2 4 44 77 800
2019-10-10 23:30 4.67 787 879 (2010) 1 (2013) 104 1 2 2 4 44 77 800
2019-10-10 23:15 4.83 868 879 (2010) 1 (2013) 104 1 2 2 4 44 77 800
2019-10-10 22:45 5.17 1060 879 (2010) 1 (2013) 104 1 2 2 4 44 77 800
2019-10-10 22:30 5.45 1230 879 (2010) 1 (2013) 104 1 2 2 4 44 77 800
2019-10-10 22:00 6.09 1720 879 (2010) 1 (2013) 104 1 2 2 4 44 77 800
2019-10-10 21:30 5.45 1230 879 (2010) 1 (2013) 104 1 2 2 4 44 77 800
2019-10-10 21:15 5.00 959 879 (2010) 1 (2013) 104 1 2 2 4 44 77 800
2019-10-10 21:00 5.02 971 879 (2010) 1 (2013) 104 1 2 2 4 44 77 800
2019-10-10 20:45 4.88 894 879 (2010) 1 (2013) 104 1 2 2 4 44 77 800
2019-10-10 20:30 4.72 812 879 (2010) 1 (2013) 104 1 2 2 4 44 77 800
2019-10-10 20:00 3.43 294 879 (2010) 1 (2013) 104 1 2 2 4 44 77 800
2019-10-10 19:45 3.21 227 879 (2010) 1 (2013) 104 1 2 2 4 44 77 800
2019-10-10 19:15 3.37 274 879 (2010) 1 (2013) 104 1 2 2 4 44 77 800
2019-10-10 19:00 3.50 317 879 (2010) 1 (2013) 104 1 2 2 4 44 77 800
2019-10-10 18:45 3.30 253 879 (2010) 1 (2013) 104 1 2 2 4 44 77 800
2019-10-10 18:30 2.45 74 879 (2010) 1 (2013) 104 1 2 2 4 44 77 800
2019-10-10 18:15 2.39 879 (2010) 1 (2013) 104 1 2 2 4 44 77 800
2019-10-10 18:00 2.37 64 879 (2010) 1 (2013) 104 1 2 2 4 44 77 800
2019-10-10 17:45 2.29 55 879 (2010) 1 (2013) 104 1 2 2 4 44 77 800
2019-10-10 17:30 2.27 53 879 (2010) 1 (2013) 104 1 2 2 4 44 77 800
2019-10-10 17:15 2.26 52 879 (2010) 1 (2013) 104 1 2 2 4 44 77 800
2019-10-10 17:00 2.26 879 (2010) 1 (2013) 104 1 2 2 4 44 77 800
2019-10-10 16:45 2.26 52 879 (2010) 1 (2013) 104 1 2 2 4 44 77 800
2019-10-10 16:30 2.26 52 879 (2010) 1 (2013) 104 1 2 2 4 44 77 800
2019-10-10 16:15 2.27 53 879 (2010) 1 (2013) 104 1 2 2 4 44 77 800
2019-10-10 16:00 2.27 879 (2010) 1 (2013) 104 1 2 2 4 44 77 800
2019-10-10 15:45 2.27 53 879 (2010) 1 (2013) 104 1 2 2 4 44 77 800
2019-10-10 15:30 2.26 52 879 (2010) 1 (2013) 104 1 2 2 4 44 77 800
2019-10-10 15:00 2.27 53 879 (2010) 1 (2013) 104 1 2 2 4 44 77 800
2019-10-10 14:45 2.28 54 879 (2010) 1 (2013) 104 1 2 2 4 44 77 800
2019-10-10 14:30 2.27 53 879 (2010) 1 (2013) 104 1 2 2 4 44 77 800
2019-10-10 14:15 2.27 53 879 (2010) 1 (2013) 104 1 2 2 4 44 77 800
2019-10-10 13:45 2.27 53 879 (2010) 1 (2013) 104 1 2 2 4 44 77 800
2019-10-10 13:30 2.28 54 879 (2010) 1 (2013) 104 1 2 2 4 44 77 800
2019-10-10 13:15 2.28 54 879 (2010) 1 (2013) 104 1 2 2 4 44 77 800
2019-10-10 13:00 2.28 879 (2010) 1 (2013) 104 1 2 2 4 44 77 800
2019-10-10 12:45 2.28 54 879 (2010) 1 (2013) 104 1 2 2 4 44 77 800
2019-10-10 12:30 2.28 54 879 (2010) 1 (2013) 104 1 2 2 4 44 77 800
2019-10-10 12:00 2.29 55 879 (2010) 1 (2013) 104 1 2 2 4 44 77 800
2019-10-10 11:45 2.28 54 879 (2010) 1 (2013) 104 1 2 2 4 44 77 800
2019-10-10 11:30 2.29 55 879 (2010) 1 (2013) 104 1 2 2 4 44 77 800
2019-10-10 11:15 2.29 55 879 (2010) 1 (2013) 104 1 2 2 4 44 77 800
2019-10-10 10:45 2.29 55 879 (2010) 1 (2013) 104 1 2 2 4 44 77 800
2019-10-10 10:30 2.29 55 879 (2010) 1 (2013) 104 1 2 2 4 44 77 800
2019-10-10 10:15 2.29 55 879 (2010) 1 (2013) 104 1 2 2 4 44 77 800
2019-10-10 09:45 2.29 55 879 (2010) 1 (2013) 104 1 2 2 4 44 77 800
2019-10-10 09:30 2.30 56 879 (2010) 1 (2013) 104 1 2 2 4 44 77 800
2019-10-10 09:00 2.30 56 879 (2010) 1 (2013) 104 1 2 2 4 44 77 800
2019-10-10 08:45 2.31 57 879 (2010) 1 (2013) 104 1 2 2 4 44 77 800
2019-10-10 08:15 2.31 57 879 (2010) 1 (2013) 104 1 2 2 4 44 77 800
2019-10-10 08:00 2.31 57 879 (2010) 1 (2013) 104 1 2 2 4 44 77 800
2019-10-10 07:45 2.31 57 879 (2010) 1 (2013) 104 1 2 2 4 44 77 800
2019-10-10 07:15 2.31 57 879 (2010) 1 (2013) 104 1 2 2 4 44 77 800
2019-10-10 07:00 2.32 58 879 (2010) 1 (2013) 104 1 2 2 4 44 77 800
2019-10-10 06:45 2.32 58 879 (2010) 1 (2013) 104 1 2 2 4 44 77 800
2019-10-10 06:15 2.32 58 879 (2010) 1 (2013) 104 1 2 2 4 44 77 800
2019-10-10 06:00 2.32 58 879 (2010) 1 (2013) 104 1 2 2 4 44 77 800
2019-10-10 05:45 2.33 59 879 (2010) 1 (2013) 104 1 2 2 4 44 77 800
2019-10-10 05:30 2.32 879 (2010) 1 (2013) 104 1 2 2 4 44 77 800
2019-10-10 05:15 59 879 (2010) 1 (2013) 104 1 2 2 4 44 77 800
2019-10-10 05:00 2.33 59 879 (2010) 1 (2013) 104 1 2 2 4 44 77 800
2019-10-10 04:45 2.33 59 879 (2010) 1 (2013) 104 1 2 2 4 44 77 800
2019-10-10 04:30 2.33 879 (2010) 1 (2013) 104 1 2 2 4 44 77 800
2019-10-10 04:15 59 879 (2010) 1 (2013) 104 1 2 2 4 44 77 800
2019-10-10 04:00 2.34 60 879 (2010) 1 (2013) 104 1 2 2 4 44 77 800
2019-10-10 03:45 2.34 60 879 (2010) 1 (2013) 104 1 2 2 4 44 77 800
2019-10-10 03:30 2.34 60 879 (2010) 1 (2013) 104 1 2 2 4 44 77 800
2019-10-10 03:00 2.34 60 879 (2010) 1 (2013) 104 1 2 2 4 44 77 800
2019-10-10 02:45 2.35 61 879 (2010) 1 (2013) 104 1 2 2 4 44 77 800
2019-10-10 02:15 2.35 61 879 (2010) 1 (2013) 104 1 2 2 4 44 77 800
2019-10-10 02:00 2.35 61 879 (2010) 1 (2013) 104 1 2 2 4 44 77 800
2019-10-10 01:45 2.35 61 879 (2010) 1 (2013) 104 1 2 2 4 44 77 800
2019-10-10 01:15 2.36 63 879 (2010) 1 (2013) 104 1 2 2 4 44 77 800
2019-10-10 01:00 2.36 63 879 (2010) 1 (2013) 104 1 2 2 4 44 77 800
2019-10-10 00:45 2.36 63 879 (2010) 1 (2013) 104 1 2 2 4 44 77 800
2019-10-10 00:30 2.36 63 879 (2010) 1 (2013) 104 1 2 2 4 44 77 800
2019-10-10 00:15 2.36 63 879 (2010) 1 (2013) 104 1 2 2 4 44 77 800
2019-10-10 00:00 2.36 63 879 (2010) 1 (2013) 104 1 2 2 4 44 77 800
2019-10-09 23:45 2.37 64 2000 (2010) 1 (2013) 207 1 1 2 3 27 29 1800
2019-10-09 23:30 2.37 64 2000 (2010) 1 (2013) 207 1 1 2 3 27 29 1800
2019-10-09 23:15 2.37 64 2000 (2010) 1 (2013) 207 1 1 2 3 27 29 1800
2019-10-09 23:00 2.38 65 2000 (2010) 1 (2013) 207 1 1 2 3 27 29 1800
2019-10-09 22:45 2.38 65 2000 (2010) 1 (2013) 207 1 1 2 3 27 29 1800
2019-10-09 22:30 2.37 64 2000 (2010) 1 (2013) 207 1 1 2 3 27 29 1800
2019-10-09 22:15 2.38 65 2000 (2010) 1 (2013) 207 1 1 2 3 27 29 1800
2019-10-09 22:00 2.38 65 2000 (2010) 1 (2013) 207 1 1 2 3 27 29 1800
2019-10-09 21:45 2.39 66 2000 (2010) 1 (2013) 207 1 1 2 3 27 29 1800
2019-10-09 21:15 2.39 66 2000 (2010) 1 (2013) 207 1 1 2 3 27 29 1800
2019-10-09 21:00 2.39 66 2000 (2010) 1 (2013) 207 1 1 2 3 27 29 1800
2019-10-09 20:45 2.39 66 2000 (2010) 1 (2013) 207 1 1 2 3 27 29 1800
2019-10-09 20:30 2.39 66 2000 (2010) 1 (2013) 207 1 1 2 3 27 29 1800
2019-10-09 20:15 2.40 68 2000 (2010) 1 (2013) 207 1 1 2 3 27 29 1800
2019-10-09 20:00 2.40 68 2000 (2010) 1 (2013) 207 1 1 2 3 27 29 1800
2019-10-09 19:45 2.40 68 2000 (2010) 1 (2013) 207 1 1 2 3 27 29 1800
2019-10-09 19:30 2.40 68 2000 (2010) 1 (2013) 207 1 1 2 3 27 29 1800
2019-10-09 19:15 2.40 68 2000 (2010) 1 (2013) 207 1 1 2 3 27 29 1800
2019-10-09 19:00 2.41 69 2000 (2010) 1 (2013) 207 1 1 2 3 27 29 1800
2019-10-09 18:45 2.41 69 2000 (2010) 1 (2013) 207 1 1 2 3 27 29 1800
2019-10-09 18:30 2.42 70 2000 (2010) 1 (2013) 207 1 1 2 3 27 29 1800
2019-10-09 18:00 2.41 69 2000 (2010) 1 (2013) 207 1 1 2 3 27 29 1800
2019-10-09 17:45 2.42 70 2000 (2010) 1 (2013) 207 1 1 2 3 27 29 1800
2019-10-09 17:30 2.42 2000 (2010) 1 (2013) 207 1 1 2 3 27 29 1800
2019-10-09 17:15 70 2000 (2010) 1 (2013) 207 1 1 2 3 27 29 1800
2019-10-09 17:00 2.43 71 2000 (2010) 1 (2013) 207 1 1 2 3 27 29 1800
2019-10-09 16:45 2.43 71 2000 (2010) 1 (2013) 207 1 1 2 3 27 29 1800
2019-10-09 16:15 2.43 71 2000 (2010) 1 (2013) 207 1 1 2 3 27 29 1800
2019-10-09 16:00 2.43 71 2000 (2010) 1 (2013) 207 1 1 2 3 27 29 1800
2019-10-09 15:45 2.44 73 2000 (2010) 1 (2013) 207 1 1 2 3 27 29 1800
2019-10-09 15:15 2.44 73 2000 (2010) 1 (2013) 207 1 1 2 3 27 29 1800
2019-10-09 15:00 2.44 73 2000 (2010) 1 (2013) 207 1 1 2 3 27 29 1800
2019-10-09 14:45 2.45 74 2000 (2010) 1 (2013) 207 1 1 2 3 27 29 1800
2019-10-09 14:15 2.45 74 2000 (2010) 1 (2013) 207 1 1 2 3 27 29 1800
2019-10-09 14:00 2.46 75 2000 (2010) 1 (2013) 207 1 1 2 3 27 29 1800
2019-10-09 13:45 2.45 74 2000 (2010) 1 (2013) 207 1 1 2 3 27 29 1800
2019-10-09 13:15 2.46 75 2000 (2010) 1 (2013) 207 1 1 2 3 27 29 1800
2019-10-09 13:00 2.46 75 2000 (2010) 1 (2013) 207 1 1 2 3 27 29 1800
2019-10-09 12:45 2.46 75 2000 (2010) 1 (2013) 207 1 1 2 3 27 29 1800
2019-10-09 12:30 2.47 77 2000 (2010) 1 (2013) 207 1 1 2 3 27 29 1800
2019-10-09 12:15 2.47 77 2000 (2010) 1 (2013) 207 1 1 2 3 27 29 1800
2019-10-09 12:00 77 2000 (2010) 1 (2013) 207 1 1 2 3 27 29 1800
2019-10-09 11:45 2.48 78 2000 (2010) 1 (2013) 207 1 1 2 3 27 29 1800
2019-10-09 11:15 2.48 78 2000 (2010) 1 (2013) 207 1 1 2 3 27 29 1800
2019-10-09 11:00 2.48 78 2000 (2010) 1 (2013) 207 1 1 2 3 27 29 1800
2019-10-09 10:45 2.48 78 2000 (2010) 1 (2013) 207 1 1 2 3 27 29 1800
2019-10-09 09:15 2.50 81 2000 (2010) 1 (2013) 207 1 1 2 3 27 29 1800
2019-10-09 09:00 81 2000 (2010) 1 (2013) 207 1 1 2 3 27 29 1800
2019-10-09 08:45 2.51 82 2000 (2010) 1 (2013) 207 1 1 2 3 27 29 1800
2019-10-09 08:30 2.51 82 2000 (2010) 1 (2013) 207 1 1 2 3 27 29 1800
2019-10-09 08:15 2.51 82 2000 (2010) 1 (2013) 207 1 1 2 3 27 29 1800
2019-10-09 08:00 2.51 82 2000 (2010) 1 (2013) 207 1 1 2 3 27 29 1800
2019-10-09 07:45 2.52 84 2000 (2010) 1 (2013) 207 1 1 2 3 27 29 1800
2019-10-09 07:30 2.52 2000 (2010) 1 (2013) 207 1 1 2 3 27 29 1800
2019-10-09 07:15 84 2000 (2010) 1 (2013) 207 1 1 2 3 27 29 1800
2019-10-09 07:00 2.52 84 2000 (2010) 1 (2013) 207 1 1 2 3 27 29 1800
2019-10-09 06:45 2.53 85 2000 (2010) 1 (2013) 207 1 1 2 3 27 29 1800
2019-10-09 06:15 2.53 85 2000 (2010) 1 (2013) 207 1 1 2 3 27 29 1800
2019-10-09 06:00 2.54 86 2000 (2010) 1 (2013) 207 1 1 2 3 27 29 1800
2019-10-09 05:45 2.54 86 2000 (2010) 1 (2013) 207 1 1 2 3 27 29 1800
2019-10-09 05:30 2.54 2000 (2010) 1 (2013) 207 1 1 2 3 27 29 1800
2019-10-09 05:15 2.54 86 2000 (2010) 1 (2013) 207 1 1 2 3 27 29 1800
2019-10-09 04:45 2.55 88 2000 (2010) 1 (2013) 207 1 1 2 3 27 29 1800
2019-10-09 04:30 2.55 88 2000 (2010) 1 (2013) 207 1 1 2 3 27 29 1800
2019-10-09 04:15 2.56 2000 (2010) 1 (2013) 207 1 1 2 3 27 29 1800
2019-10-09 04:00 89 2000 (2010) 1 (2013) 207 1 1 2 3 27 29 1800
2019-10-09 03:45 2.56 89 2000 (2010) 1 (2013) 207 1 1 2 3 27 29 1800
2019-10-09 03:30 2.57 91 2000 (2010) 1 (2013) 207 1 1 2 3 27 29 1800
2019-10-09 03:15 2.57 2000 (2010) 1 (2013) 207 1 1 2 3 27 29 1800
2019-10-09 03:00 91 2000 (2010) 1 (2013) 207 1 1 2 3 27 29 1800
2019-10-09 02:45 2.57 91 2000 (2010) 1 (2013) 207 1 1 2 3 27 29 1800
2019-10-09 02:15 2.58 92 2000 (2010) 1 (2013) 207 1 1 2 3 27 29 1800
2019-10-09 02:00 2.58 92 2000 (2010) 1 (2013) 207 1 1 2 3 27 29 1800
2019-10-09 01:45 2.60 96 2000 (2010) 1 (2013) 207 1 1 2 3 27 29 1800
2019-10-09 01:15 2.60 96 2000 (2010) 1 (2013) 207 1 1 2 3 27 29 1800
2019-10-09 00:45 2.60 96 2000 (2010) 1 (2013) 207 1 1 2 3 27 29 1800
2019-10-09 00:30 2.61 2000 (2010) 1 (2013) 207 1 1 2 3 27 29 1800
2019-10-09 00:15 99 2000 (2010) 1 (2013) 207 1 1 2 3 27 29 1800
2019-10-09 00:00 2.62 99 2000 (2010) 1 (2013) 207 1 1 2 3 27 29 1800
2019-10-08 23:45 2.61 97 37 (2010) 1 (2013) 11 1 1 2 4 25 29 36
2019-10-08 23:30 2.62 99 37 (2010) 1 (2013) 11 1 1 2 4 25 29 36
2019-10-08 23:15 2.62 99 37 (2010) 1 (2013) 11 1 1 2 4 25 29 36
2019-10-08 23:00 2.62 99 37 (2010) 1 (2013) 11 1 1 2 4 25 29 36
2019-10-08 22:45 2.63 100 37 (2010) 1 (2013) 11 1 1 2 4 25 29 36
2019-10-08 22:15 2.64 102 37 (2010) 1 (2013) 11 1 1 2 4 25 29 36
2019-10-08 22:00 2.64 102 37 (2010) 1 (2013) 11 1 1 2 4 25 29 36
2019-10-08 21:45 2.65 104 37 (2010) 1 (2013) 11 1 1 2 4 25 29 36
2019-10-08 21:15 2.65 104 37 (2010) 1 (2013) 11 1 1 2 4 25 29 36
2019-10-08 21:00 2.66 105 37 (2010) 1 (2013) 11 1 1 2 4 25 29 36
2019-10-08 20:45 2.66 105 37 (2010) 1 (2013) 11 1 1 2 4 25 29 36
2019-10-08 20:30 2.67 107 37 (2010) 1 (2013) 11 1 1 2 4 25 29 36
2019-10-08 20:15 2.67 107 37 (2010) 1 (2013) 11 1 1 2 4 25 29 36
2019-10-08 20:00 2.67 107 37 (2010) 1 (2013) 11 1 1 2 4 25 29 36
2019-10-08 19:45 2.67 107 37 (2010) 1 (2013) 11 1 1 2 4 25 29 36
2019-10-08 19:30 2.68 109 37 (2010) 1 (2013) 11 1 1 2 4 25 29 36
2019-10-08 19:15 2.68 109 37 (2010) 1 (2013) 11 1 1 2 4 25 29 36
2019-10-08 19:00 2.69 110 37 (2010) 1 (2013) 11 1 1 2 4 25 29 36
2019-10-08 18:45 2.70 112 37 (2010) 1 (2013) 11 1 1 2 4 25 29 36
2019-10-08 18:30 2.70 112 37 (2010) 1 (2013) 11 1 1 2 4 25 29 36
2019-10-08 18:15 2.71 114 37 (2010) 1 (2013) 11 1 1 2 4 25 29 36
2019-10-08 18:00 2.71 114 37 (2010) 1 (2013) 11 1 1 2 4 25 29 36
2019-10-08 17:45 2.71 114 37 (2010) 1 (2013) 11 1 1 2 4 25 29 36
2019-10-08 17:30 2.71 114 37 (2010) 1 (2013) 11 1 1 2 4 25 29 36
2019-10-08 17:15 2.72 116 37 (2010) 1 (2013) 11 1 1 2 4 25 29 36
2019-10-08 17:00 2.73 117 37 (2010) 1 (2013) 11 1 1 2 4 25 29 36
2019-10-08 16:45 2.73 117 37 (2010) 1 (2013) 11 1 1 2 4 25 29 36
2019-10-08 16:15 2.74 119 37 (2010) 1 (2013) 11 1 1 2 4 25 29 36
2019-10-08 15:45 2.75 121 37 (2010) 1 (2013) 11 1 1 2 4 25 29 36
2019-10-08 15:30 2.75 121 37 (2010) 1 (2013) 11 1 1 2 4 25 29 36
2019-10-08 15:15 2.76 123 37 (2010) 1 (2013) 11 1 1 2 4 25 29 36
2019-10-08 14:45 2.76 123 37 (2010) 1 (2013) 11 1 1 2 4 25 29 36
2019-10-08 14:15 2.78 127 37 (2010) 1 (2013) 11 1 1 2 4 25 29 36
2019-10-08 14:00 2.78 127 37 (2010) 1 (2013) 11 1 1 2 4 25 29 36
2019-10-08 13:45 2.79 129 37 (2010) 1 (2013) 11 1 1 2 4 25 29 36
2019-10-08 13:15 2.79 129 37 (2010) 1 (2013) 11 1 1 2 4 25 29 36
2019-10-08 13:00 130 37 (2010) 1 (2013) 11 1 1 2 4 25 29 36
2019-10-08 12:45 2.80 130 37 (2010) 1 (2013) 11 1 1 2 4 25 29 36
2019-10-08 12:30 2.80 130 37 (2010) 1 (2013) 11 1 1 2 4 25 29 36
2019-10-08 12:15 2.81 37 (2010) 1 (2013) 11 1 1 2 4 25 29 36
2019-10-08 12:00 132 37 (2010) 1 (2013) 11 1 1 2 4 25 29 36
2019-10-08 11:45 2.81 132 37 (2010) 1 (2013) 11 1 1 2 4 25 29 36
2019-10-08 11:30 2.83 37 (2010) 1 (2013) 11 1 1 2 4 25 29 36
2019-10-08 11:15 2.83 136 37 (2010) 1 (2013) 11 1 1 2 4 25 29 36
2019-10-08 11:00 136 37 (2010) 1 (2013) 11 1 1 2 4 25 29 36
2019-10-08 10:45 2.83 136 37 (2010) 1 (2013) 11 1 1 2 4 25 29 36
2019-10-08 10:30 2.84 138 37 (2010) 1 (2013) 11 1 1 2 4 25 29 36
2019-10-08 10:00 2.84 138 37 (2010) 1 (2013) 11 1 1 2 4 25 29 36
2019-10-08 09:45 2.85 140 37 (2010) 1 (2013) 11 1 1 2 4 25 29 36
2019-10-08 09:15 2.86 142 37 (2010) 1 (2013) 11 1 1 2 4 25 29 36
2019-10-08 09:00 147 37 (2010) 1 (2013) 11 1 1 2 4 25 29 36
2019-10-08 08:45 2.88 147 37 (2010) 1 (2013) 11 1 1 2 4 25 29 36
2019-10-08 08:15 2.89 149 37 (2010) 1 (2013) 11 1 1 2 4 25 29 36
2019-10-08 08:00 2.89 149 37 (2010) 1 (2013) 11 1 1 2 4 25 29 36
2019-10-08 07:45 2.90 151 37 (2010) 1 (2013) 11 1 1 2 4 25 29 36
2019-10-08 07:15 2.91 153 37 (2010) 1 (2013) 11 1 1 2 4 25 29 36
2019-10-08 07:00 2.91 153 37 (2010) 1 (2013) 11 1 1 2 4 25 29 36
2019-10-08 06:45 2.91 153 37 (2010) 1 (2013) 11 1 1 2 4 25 29 36
2019-10-08 06:30 2.93 157 37 (2010) 1 (2013) 11 1 1 2 4 25 29 36
2019-10-08 06:15 2.94 37 (2010) 1 (2013) 11 1 1 2 4 25 29 36
2019-10-08 06:00 157 37 (2010) 1 (2013) 11 1 1 2 4 25 29 36
2019-10-08 05:45 2.95 162 37 (2010) 1 (2013) 11 1 1 2 4 25 29 36
2019-10-08 05:30 2.96 37 (2010) 1 (2013) 11 1 1 2 4 25 29 36
2019-10-08 05:15 164 37 (2010) 1 (2013) 11 1 1 2 4 25 29 36
2019-10-08 05:00 2.96 164 37 (2010) 1 (2013) 11 1 1 2 4 25 29 36
2019-10-08 04:45 2.97 166 37 (2010) 1 (2013) 11 1 1 2 4 25 29 36
2019-10-08 04:30 2.98 168 37 (2010) 1 (2013) 11 1 1 2 4 25 29 36
2019-10-08 04:15 2.98 168 37 (2010) 1 (2013) 11 1 1 2 4 25 29 36
2019-10-08 03:45 2.99 171 37 (2010) 1 (2013) 11 1 1 2 4 25 29 36
2019-10-08 03:15 3.02 178 37 (2010) 1 (2013) 11 1 1 2 4 25 29 36
2019-10-08 03:00 3.02 178 37 (2010) 1 (2013) 11 1 1 2 4 25 29 36
2019-10-08 02:45 3.03 180 37 (2010) 1 (2013) 11 1 1 2 4 25 29 36
2019-10-08 02:30 3.03 37 (2010) 1 (2013) 11 1 1 2 4 25 29 36
2019-10-08 02:15 3.04 182 37 (2010) 1 (2013) 11 1 1 2 4 25 29 36
2019-10-08 02:00 185 37 (2010) 1 (2013) 11 1 1 2 4 25 29 36
2019-10-08 01:45 3.04 182 37 (2010) 1 (2013) 11 1 1 2 4 25 29 36
2019-10-08 01:15 3.07 190 37 (2010) 1 (2013) 11 1 1 2 4 25 29 36
2019-10-08 01:00 192 37 (2010) 1 (2013) 11 1 1 2 4 25 29 36
2019-10-08 00:45 3.09 195 37 (2010) 1 (2013) 11 1 1 2 4 25 29 36
2019-10-08 00:30 3.09 195 37 (2010) 1 (2013) 11 1 1 2 4 25 29 36
2019-10-08 00:15 3.11 200 37 (2010) 1 (2013) 11 1 1 2 4 25 29 36
2019-10-08 00:00 3.12 202 37 (2010) 1 (2013) 11 1 1 2 4 25 29 36
2019-10-07 23:45 3.12 202 33 (2010) 1 (2013) 11 1 2 2 4 25 29 33
2019-10-07 23:30 3.13 205 33 (2010) 1 (2013) 11 1 2 2 4 25 29 33
2019-10-07 23:15 3.14 208 33 (2010) 1 (2013) 11 1 2 2 4 25 29 33
2019-10-07 23:00 3.15 210 33 (2010) 1 (2013) 11 1 2 2 4 25 29 33
2019-10-07 22:45 3.15 210 33 (2010) 1 (2013) 11 1 2 2 4 25 29 33
2019-10-07 22:30 3.17 216 33 (2010) 1 (2013) 11 1 2 2 4 25 29 33
2019-10-07 22:15 3.18 218 33 (2010) 1 (2013) 11 1 2 2 4 25 29 33
2019-10-07 22:00 218 33 (2010) 1 (2013) 11 1 2 2 4 25 29 33
2019-10-07 21:45 3.19 221 33 (2010) 1 (2013) 11 1 2 2 4 25 29 33
2019-10-07 21:30 3.21 227 33 (2010) 1 (2013) 11 1 2 2 4 25 29 33
2019-10-07 21:15 3.21 227 33 (2010) 1 (2013) 11 1 2 2 4 25 29 33
2019-10-07 21:00 3.23 232 33 (2010) 1 (2013) 11 1 2 2 4 25 29 33
2019-10-07 20:45 3.24 235 33 (2010) 1 (2013) 11 1 2 2 4 25 29 33
2019-10-07 20:30 3.25 238 33 (2010) 1 (2013) 11 1 2 2 4 25 29 33
2019-10-07 20:15 3.26 241 33 (2010) 1 (2013) 11 1 2 2 4 25 29 33
2019-10-07 20:00 3.27 244 33 (2010) 1 (2013) 11 1 2 2 4 25 29 33
2019-10-07 19:45 3.28 247 33 (2010) 1 (2013) 11 1 2 2 4 25 29 33
2019-10-07 19:30 3.30 253 33 (2010) 1 (2013) 11 1 2 2 4 25 29 33
2019-10-07 19:15 3.31 256 33 (2010) 1 (2013) 11 1 2 2 4 25 29 33
2019-10-07 18:45 3.32 259 33 (2010) 1 (2013) 11 1 2 2 4 25 29 33
2019-10-07 18:30 3.34 265 33 (2010) 1 (2013) 11 1 2 2 4 25 29 33
2019-10-07 18:15 3.37 274 33 (2010) 1 (2013) 11 1 2 2 4 25 29 33
2019-10-07 17:45 3.38 277 33 (2010) 1 (2013) 11 1 2 2 4 25 29 33
2019-10-07 17:30 3.39 33 (2010) 1 (2013) 11 1 2 2 4 25 29 33
2019-10-07 17:15 3.41 287 33 (2010) 1 (2013) 11 1 2 2 4 25 29 33
2019-10-07 17:00 290 33 (2010) 1 (2013) 11 1 2 2 4 25 29 33
2019-10-07 16:45 3.45 300 33 (2010) 1 (2013) 11 1 2 2 4 25 29 33
2019-10-07 16:30 3.45 33 (2010) 1 (2013) 11 1 2 2 4 25 29 33
2019-10-07 16:15 304 33 (2010) 1 (2013) 11 1 2 2 4 25 29 33
2019-10-07 16:00 3.50 317 33 (2010) 1 (2013) 11 1 2 2 4 25 29 33
2019-10-07 15:45 3.51 321 33 (2010) 1 (2013) 11 1 2 2 4 25 29 33
2019-10-07 15:30 3.51 33 (2010) 1 (2013) 11 1 2 2 4 25 29 33
2019-10-07 15:15 332 33 (2010) 1 (2013) 11 1 2 2 4 25 29 33
2019-10-07 15:00 3.54 332 33 (2010) 1 (2013) 11 1 2 2 4 25 29 33
2019-10-07 14:45 3.57 343 33 (2010) 1 (2013) 11 1 2 2 4 25 29 33
2019-10-07 14:30 3.59 350 33 (2010) 1 (2013) 11 1 2 2 4 25 29 33
2019-10-07 14:00 3.62 361 33 (2010) 1 (2013) 11 1 2 2 4 25 29 33
2019-10-07 13:45 3.64 369 33 (2010) 1 (2013) 11 1 2 2 4 25 29 33
2019-10-07 13:15 3.67 381 33 (2010) 1 (2013) 11 1 2 2 4 25 29 33
2019-10-07 13:00 388 33 (2010) 1 (2013) 11 1 2 2 4 25 29 33
2019-10-07 12:45 3.70 392 33 (2010) 1 (2013) 11 1 2 2 4 25 29 33
2019-10-07 12:15 3.75 412 33 (2010) 1 (2013) 11 1 2 2 4 25 29 33
2019-10-07 12:00 3.78 424 33 (2010) 1 (2013) 11 1 2 2 4 25 29 33
2019-10-07 11:45 3.78 424 33 (2010) 1 (2013) 11 1 2 2 4 25 29 33
2019-10-07 11:15 3.83 442 33 (2010) 1 (2013) 11 1 2 2 4 25 29 33
2019-10-07 11:00 3.84 445 33 (2010) 1 (2013) 11 1 2 2 4 25 29 33
2019-10-07 10:45 3.88 459 33 (2010) 1 (2013) 11 1 2 2 4 25 29 33
2019-10-07 10:15 3.92 473 33 (2010) 1 (2013) 11 1 2 2 4 25 29 33
2019-10-07 10:00 3.94 480 33 (2010) 1 (2013) 11 1 2 2 4 25 29 33
2019-10-07 09:45 3.97 491 33 (2010) 1 (2013) 11 1 2 2 4 25 29 33
2019-10-07 09:30 3.99 33 (2010) 1 (2013) 11 1 2 2 4 25 29 33
2019-10-07 09:15 505 33 (2010) 1 (2013) 11 1 2 2 4 25 29 33
2019-10-07 09:00 4.06 524 33 (2010) 1 (2013) 11 1 2 2 4 25 29 33
2019-10-07 08:45 4.08 531 33 (2010) 1 (2013) 11 1 2 2 4 25 29 33
2019-10-07 08:30 4.10 539 33 (2010) 1 (2013) 11 1 2 2 4 25 29 33
2019-10-07 08:00 4.16 562 33 (2010) 1 (2013) 11 1 2 2 4 25 29 33
2019-10-07 07:45 4.18 570 33 (2010) 1 (2013) 11 1 2 2 4 25 29 33
2019-10-07 07:30 4.19 574 33 (2010) 1 (2013) 11 1 2 2 4 25 29 33
2019-10-07 07:00 4.26 602 33 (2010) 1 (2013) 11 1 2 2 4 25 29 33
2019-10-07 06:45 4.28 611 33 (2010) 1 (2013) 11 1 2 2 4 25 29 33
2019-10-07 06:15 4.31 623 33 (2010) 1 (2013) 11 1 2 2 4 25 29 33
2019-10-07 06:00 4.35 640 33 (2010) 1 (2013) 11 1 2 2 4 25 29 33
2019-10-07 05:45 4.36 644 33 (2010) 1 (2013) 11 1 2 2 4 25 29 33
2019-10-07 05:15 4.39 657 33 (2010) 1 (2013) 11 1 2 2 4 25 29 33
2019-10-07 05:00 4.45 684 33 (2010) 1 (2013) 11 1 2 2 4 25 29 33
2019-10-07 04:45 4.47 693 33 (2010) 1 (2013) 11 1 2 2 4 25 29 33
2019-10-07 04:30 4.53 33 (2010) 1 (2013) 11 1 2 2 4 25 29 33
2019-10-07 04:15 739 33 (2010) 1 (2013) 11 1 2 2 4 25 29 33
2019-10-07 04:00 4.61 758 33 (2010) 1 (2013) 11 1 2 2 4 25 29 33
2019-10-07 03:45 4.65 777 33 (2010) 1 (2013) 11 1 2 2 4 25 29 33
2019-10-07 03:15 4.58 744 33 (2010) 1 (2013) 11 1 2 2 4 25 29 33
2019-10-07 03:00 4.43 675 33 (2010) 1 (2013) 11 1 2 2 4 25 29 33
2019-10-07 02:45 4.41 666 33 (2010) 1 (2013) 11 1 2 2 4 25 29 33
2019-10-07 02:30 4.44 33 (2010) 1 (2013) 11 1 2 2 4 25 29 33
2019-10-07 02:15 707 33 (2010) 1 (2013) 11 1 2 2 4 25 29 33
2019-10-07 02:00 4.57 739 33 (2010) 1 (2013) 11 1 2 2 4 25 29 33
2019-10-07 01:45 4.61 758 33 (2010) 1 (2013) 11 1 2 2 4 25 29 33
2019-10-07 01:15 4.69 797 33 (2010) 1 (2013) 11 1 2 2 4 25 29 33
2019-10-07 01:00 4.75 827 33 (2010) 1 (2013) 11 1 2 2 4 25 29 33
2019-10-07 00:45 4.81 857 33 (2010) 1 (2013) 11 1 2 2 4 25 29 33
2019-10-07 00:30 4.85 878 33 (2010) 1 (2013) 11 1 2 2 4 25 29 33
2019-10-07 00:15 4.90 905 33 (2010) 1 (2013) 11 1 2 2 4 25 29 33
2019-10-07 00:00 4.96 937 33 (2010) 1 (2013) 11 1 2 2 4 25 29 33

A total of 584 rows are displayed for years 2009 through 2018.

Trips for Buffalo River (Arkansas), Ponca (07055660)

DateStartEndDistanceConditionDischargeHeightFishingDetails
Click for details2016-03-15 Ponca Kyles Total trip distance: 10.6 miles10.6 Good 449 3.31 None NoneNone Amburn, Andrea
Arnold, Al
Edmond, Brian
Eth, Joe
Van Someren, Tom
Amburn, Andrea; Arnold, Al; Edmond, Brian; Eth, Joe; Van Someren, Tom
The water level was nearly perfect for this trip. There were a few places where kayaks dragged the gravel or some rocks but the current was swift nearly the entire time and most riffles were easily navigated.The water level was nearly perfect for this trip. There were a few places where kayaks dragged the gravel or some rocks but the current was swift nearly the entire time and most riffles were easily navigated. USGS Gauge Data:
Ponca (07055660)
Discharge: 449
Height: 3.31
<b>USGS Gauge Data:</b></br />Ponca (07055660)<br />Discharge: 449<br />Height: 3.31
Source: EdmondSource: Edmond
Click for details2013-05-11 Ponca Kyles (B) Total trip distance: 23.8 miles9.0 Good 195 2.52 Fair SMB
RB
LSF
GSF
SMB, RB, LSF, GSF
Fillmore, Brian
Fillmore, Rebecca
Fillmore, Brian; Fillmore, Rebecca
No notes for this trip<i>No notes for this trip</i> USGS Gauge Data:
Ponca (07055660)
Discharge: 195
Height: 2.52
<b>USGS Gauge Data:</b></br />Ponca (07055660)<br />Discharge: 195<br />Height: 2.52
Source: FillmoreSource: Fillmore
Click for details2013-05-12 Kyles (B) Erbie (A) Total trip distance: 23.8 miles9.0 Good 164 2.41 Fair SMB
RB
LSF
GSF
SMB, RB, LSF, GSF
Fillmore, Brian
Fillmore, Rebecca
Fillmore, Brian; Fillmore, Rebecca
No notes for this trip<i>No notes for this trip</i> USGS Gauge Data:
Ponca (07055660)
Discharge: 164
Height: 2.41
<b>USGS Gauge Data:</b></br />Ponca (07055660)<br />Discharge: 164<br />Height: 2.41
Source: FillmoreSource: Fillmore
Click for details2017-02-19 Ponca Kyles Total trip distance: 10.6 miles10.6 Good 148 2.58 None NoneNone Acharya, Sreekanth
Amburn, Andrea
Amburn, Matt
Arnold, Al
Van Someren, Cynthia
Van Someren, Tom
Williams, Sarah
Acharya, Sreekanth; Amburn, Andrea; Amburn, Matt; Arnold, Al; Van Someren, Cynthia; Van Someren, Tom; Williams, Sarah
Water level was okay, not great, but still worthy of a marginally 'Good' rating. Our boats ran into may many hidden rocks, and the less experienced kayaker got stuck on low gravel bars a few times. But the current was still moving along sufficiently. We got in the water at 11:40 and arrived at Kyle's at 5:30. A flat tire on the kayak trailer, along with a couple spills by Cynthia and Andrea in the canoe, prevented us from being able to hike in to Hemmed-In Hollow.Water level was okay, not great, but still worthy of a marginally 'Good' rating. Our boats ran into may many hidden rocks, and the less experienced kayaker got stuck on low gravel bars a few times. But the current was still moving along sufficiently. We got in the water at 11:40 and arrived at Kyle's at 5:30. A flat tire on the kayak trailer, along with a couple spills by Cynthia and Andrea in the canoe, prevented us from being able to hike in to Hemmed-In Hollow. USGS Gauge Data:
Ponca (07055660)
Discharge: 148
Height: 2.58
<b>USGS Gauge Data:</b></br />Ponca (07055660)<br />Discharge: 148<br />Height: 2.58
Source: Van SomerenSource: Van Someren
Click for details2019-03-22 Ponca Kyles Total trip distance: 10.6 miles10.6 Good 144 3.14 None NoneNone Arnold, Al
Bartlett, Renee
Bullard, Loring
Jones, Marianne
Siegfried, Beth
Turk, Scott
Van Someren, Tom
Williams, Sarah
Arnold, Al; Bartlett, Renee; Bullard, Loring; Jones, Marianne; Siegfried, Beth; Turk, Scott; Van Someren, Tom; Williams, Sarah
The weather today was excellent for a day on the Buffalo. The water level could have been higher to make this a perfect trip, but there was still enough flow to give it a 'Good' rating. Lots of half hidden rocks for the less experienced kayaker (as well as experienced floater) to get stuck on. Late in the day we had to help do a minor rescue of a father-daughter who capsized their canoe .3 of a mile upstream from Kyle's (they were two cold soaked and shivering floaters). We got in the water at 10:40 and arrived at Kyle's at just after 18:00, which included a hike in to Hemmed-In Hollow.The weather today was excellent for a day on the Buffalo. The water level could have been higher to make this a perfect trip, but there was still enough flow to give it a 'Good' rating. Lots of half hidden rocks for the less experienced kayaker (as well as experienced floater) to get stuck on. Late in the day we had to help do a minor rescue of a father-daughter who capsized their canoe .3 of a mile upstream from Kyle's (they were two cold soaked and shivering floaters). We got in the water at 10:40 and arrived at Kyle's at just after 18:00, which included a hike in to Hemmed-In Hollow. USGS Gauge Data:
Ponca (07055660)
Discharge: 144
Height: 3.14
<b>USGS Gauge Data:</b></br />Ponca (07055660)<br />Discharge: 144<br />Height: 3.14
Source: Van SomerenSource: Van Someren
Click for details2013-05-13 Erbie (A) Pruitt Total trip distance: 23.8 miles5.8 Good 143 2.33 Fair SMB
RB
LSF
GSF
SMB, RB, LSF, GSF
Fillmore, Brian
Fillmore, Rebecca
Fillmore, Brian; Fillmore, Rebecca
No notes for this trip<i>No notes for this trip</i> USGS Gauge Data:
Ponca (07055660)
Discharge: 143
Height: 2.33
<b>USGS Gauge Data:</b></br />Ponca (07055660)<br />Discharge: 143<br />Height: 2.33
Source: FillmoreSource: Fillmore

A total of 6 rows are displayed.

Trip Summary for Buffalo River (Arkansas), Ponca (07055660)

Miles55.6
Trips4
People16
Dates6
Years4
Months3
Rows6
Sources3

Condition Descriptions

Fishing Conditions

Fish Species

Notes

Classic Trip List

The classic River Trips application is still available for use. It is updated with the new system using a data retrofit. It is no longer maintained. The original River Trips application is no longer updated (as of 1 Dec 2016) but can be checked for errors or for the condition of the data before it was converted to the new system.